Time;durP1;ratioP1;P1;durP2;ratioP2;P2;SDS_P1;SDS_P2;PMS_P1;PMS_P2;Temp;Humidity;BMP_temperature;BMP_pressure;BME280_temperature;BME280_humidity;BME280_pressure;Samples;Min_cycle;Max_cycle;Signal;HPM_P1;HPM_P2
2023/09/01 00:01:10;;;;;;;3.97;3.20;;;;;;;21.26;66.41;95038.78;5096148;28;20440;-83
2023/09/01 00:03:37;;;;;;;5.40;3.70;;;;;;;21.25;66.16;95034.47;5096127;28;20440;-84
2023/09/01 00:06:03;;;;;;;3.97;2.90;;;;;;;21.22;66.50;95026.81;5095915;28;20920;-84
2023/09/01 00:08:31;;;;;;;3.60;3.30;;;;;;;21.18;66.65;95031.72;5095766;28;20527;-83
2023/09/01 00:10:59;;;;;;;6.43;3.73;;;;;;;21.19;66.73;95035.19;5095699;28;20436;-84
2023/09/01 00:13:26;;;;;;;3.17;2.70;;;;;;;21.22;66.51;95040.16;5095783;28;20445;-84
2023/09/01 00:15:54;;;;;;;5.00;3.03;;;;;;;21.17;66.32;95045.25;5096121;28;20463;-83
2023/09/01 00:18:21;;;;;;;4.00;2.80;;;;;;;21.13;66.58;95042.13;5096846;28;20458;-83
2023/09/01 00:20:48;;;;;;;4.20;3.13;;;;;;;21.17;66.34;95039.91;5096301;28;20450;-83
2023/09/01 00:23:15;;;;;;;6.50;3.30;;;;;;;21.18;66.33;95049.56;5096481;28;20452;-83
2023/09/01 00:25:42;;;;;;;10.60;3.53;;;;;;;21.14;66.37;95043.78;5095992;28;20446;-83
2023/09/01 00:28:10;;;;;;;4.30;3.40;;;;;;;21.16;66.00;95046.25;5096437;28;20573;-83
2023/09/01 00:30:51;;;;;;;3.77;3.43;;;;;;;21.16;66.03;95047.09;5095545;28;20440;-83
2023/09/01 00:33:18;;;;;;;5.87;4.10;;;;;;;21.10;66.14;95049.66;5060670;28;20446;-83
2023/09/01 00:35:45;;;;;;;3.87;3.50;;;;;;;20.98;66.83;95047.53;5095533;28;21021;-84
2023/09/01 00:38:11;;;;;;;7.23;3.73;;;;;;;21.01;67.83;95043.63;5096564;28;20868;-84
2023/09/01 00:40:38;;;;;;;5.33;3.90;;;;;;;21.01;66.76;95044.47;5095771;28;20447;-84
2023/09/01 00:43:05;;;;;;;5.87;3.17;;;;;;;20.83;67.13;95046.75;5095662;28;20461;-83
2023/09/01 00:45:37;;;;;;;6.73;3.50;;;;;;;20.72;68.17;95044.56;5095318;28;20448;-84
2023/09/01 00:48:07;;;;;;;6.63;4.07;;;;;;;20.70;68.48;95046.59;5095516;28;20448;-84
2023/09/01 00:50:35;;;;;;;4.40;3.30;;;;;;;20.69;67.93;95044.94;5095751;28;20441;-83
2023/09/01 00:53:04;;;;;;;4.10;3.40;;;;;;;20.74;68.24;95042.53;5095565;28;20471;-83
2023/09/01 00:55:33;;;;;;;4.17;3.73;;;;;;;20.80;68.48;95040.94;5060811;28;20443;-82
2023/09/01 00:58:00;;;;;;;4.87;3.50;;;;;;;20.82;67.84;95042.44;5095320;28;20515;-83
2023/09/01 01:00:27;;;;;;;3.87;3.37;;;;;;;20.86;68.10;95046.38;5097099;28;20435;-84
2023/09/01 01:02:56;;;;;;;9.77;3.30;;;;;;;20.88;67.10;95048.84;5095819;28;20534;-82
2023/09/01 01:05:34;;;;;;;4.00;3.10;;;;;;;20.88;67.56;95044.34;5095547;28;20443;-83
2023/09/01 01:08:12;;;;;;;5.63;3.43;;;;;;;20.87;66.41;95056.03;5095743;28;20441;-82
2023/09/01 01:10:48;;;;;;;4.67;3.00;;;;;;;20.86;68.12;95045.56;5095658;28;20466;-83
2023/09/01 01:13:19;;;;;;;3.50;3.07;;;;;;;20.84;67.39;95042.25;5094918;28;20458;-83
2023/09/01 01:15:47;;;;;;;3.00;2.80;;;;;;;20.82;67.30;95044.28;5094785;28;21015;-84
2023/09/01 01:18:18;;;;;;;3.33;3.03;;;;;;;20.76;68.16;95045.00;5095244;28;20540;-83
2023/09/01 01:20:52;;;;;;;3.77;3.10;;;;;;;20.82;67.97;95046.94;5097871;28;20440;-84
2023/09/01 01:23:21;;;;;;;3.00;2.40;;;;;;;20.81;67.26;95040.75;5047862;28;20436;-85
2023/09/01 01:25:49;;;;;;;4.37;3.47;;;;;;;20.69;67.76;95047.63;5099483;28;20450;-84
2023/09/01 01:28:17;;;;;;;4.00;3.40;;;;;;;20.73;67.91;95046.22;5095918;28;20451;-83
2023/09/01 01:30:46;;;;;;;3.20;2.60;;;;;;;20.73;68.72;95041.72;5095977;28;20432;-83
2023/09/01 01:33:37;;;;;;;4.73;3.23;;;;;;;20.70;67.01;95036.75;5094641;28;20456;-84
2023/09/01 01:36:15;;;;;;;6.43;3.87;;;;;;;20.74;67.75;95034.53;5093682;28;20445;-83
2023/09/01 01:38:47;;;;;;;3.57;3.17;;;;;;;20.72;67.40;95033.91;5093810;28;20483;-83
2023/09/01 01:41:19;;;;;;;4.80;3.53;;;;;;;20.72;68.17;95033.91;5094732;28;20986;-84
2023/09/01 01:43:50;;;;;;;4.10;3.40;;;;;;;20.72;67.43;95028.56;5094773;28;20870;-83
2023/09/01 01:46:18;;;;;;;3.57;3.27;;;;;;;20.75;68.15;95033.53;5094202;28;20447;-84
2023/09/01 01:48:44;;;;;;;6.17;3.50;;;;;;;20.77;67.04;95036.00;5093215;28;20465;-83
2023/09/01 01:51:11;;;;;;;3.90;3.33;;;;;;;20.74;66.28;95026.53;5041920;28;20468;-82
2023/09/01 01:53:39;;;;;;;3.63;3.30;;;;;;;20.74;66.76;95037.22;5058342;28;20519;-82
2023/09/01 01:56:07;;;;;;;7.07;3.20;;;;;;;20.66;66.45;95034.66;5041850;28;20435;-83
2023/09/01 01:58:34;;;;;;;4.07;3.67;;;;;;;20.52;67.39;95038.19;5093485;28;20958;-83
2023/09/01 02:01:06;;;;;;;5.53;3.70;;;;;;;20.51;68.15;95041.84;5093965;28;20934;-81
2023/09/01 02:03:33;;;;;;;3.60;3.30;;;;;;;20.46;68.62;95038.94;5094147;28;20943;-83
2023/09/01 02:06:00;;;;;;;3.93;3.63;;;;;;;20.36;68.97;95041.88;5093701;28;20441;-84
2023/09/01 02:08:27;;;;;;;4.47;3.67;;;;;;;20.24;69.43;95041.53;5093718;28;20450;-82
2023/09/01 02:10:55;;;;;;;4.53;3.40;;;;;;;20.25;69.52;95035.19;5094039;28;20947;-84
2023/09/01 02:13:23;;;;;;;3.30;2.90;;;;;;;20.26;69.69;95034.16;5093733;28;20475;-83
2023/09/01 02:15:53;;;;;;;5.73;3.00;;;;;;;20.35;69.35;95037.56;5093742;28;20444;-83
2023/09/01 02:18:20;;;;;;;4.73;3.40;;;;;;;20.42;68.98;95027.81;5093480;28;21002;-81
2023/09/01 02:20:47;;;;;;;4.03;3.30;;;;;;;20.45;68.23;95034.63;5094002;28;21048;-82
2023/09/01 02:23:16;;;;;;;5.07;3.70;;;;;;;20.44;68.37;95033.78;5093777;28;20450;-83
2023/09/01 02:25:43;;;;;;;4.57;3.53;;;;;;;20.47;68.06;95029.91;5093809;28;20490;-83
2023/09/01 02:28:10;;;;;;;4.20;3.80;;;;;;;20.40;68.63;95036.00;5057896;28;20484;-84
2023/09/01 02:30:39;;;;;;;3.57;3.27;;;;;;;20.37;68.92;95036.34;5093746;28;20519;-84
2023/09/01 02:33:06;;;;;;;4.63;3.23;;;;;;;20.36;68.93;95040.03;5093488;28;20447;-83
2023/09/01 02:35:33;;;;;;;5.40;3.50;;;;;;;20.35;68.99;95043.72;5093241;28;21198;-83
2023/09/01 02:37:59;;;;;;;6.30;3.97;;;;;;;20.26;69.34;95033.34;5093771;28;20477;-83
2023/09/01 02:40:26;;;;;;;4.13;3.73;;;;;;;20.34;69.92;95042.06;5041914;28;20474;-84
2023/09/01 02:42:53;;;;;;;4.47;3.23;;;;;;;20.27;69.53;95041.16;5093891;28;20435;-83
2023/09/01 02:45:20;;;;;;;6.27;3.63;;;;;;;20.21;69.43;95036.53;5093627;28;20754;-83
2023/09/01 02:47:48;;;;;;;4.33;3.53;;;;;;;20.16;69.12;95041.59;5093786;28;20446;-83
2023/09/01 02:50:15;;;;;;;7.80;3.77;;;;;;;20.09;69.48;95054.84;5093024;28;20446;-83
2023/09/01 02:52:42;;;;;;;4.27;3.53;;;;;;;20.05;69.03;95050.91;5093094;28;20475;-83
2023/09/01 02:55:09;;;;;;;8.90;3.70;;;;;;;20.00;69.36;95049.81;5093597;28;20443;-83
2023/09/01 02:57:36;;;;;;;7.40;3.33;;;;;;;19.88;69.74;95048.59;5093633;28;20484;-79
2023/09/01 03:00:14;;;;;;;5.20;3.30;;;;;;;20.82;72.92;95044.28;5095215;28;20778;-82
2023/09/01 03:02:42;;;;;;;4.23;3.10;;;;;;;21.16;68.11;95040.91;5097660;28;20450;-83
2023/09/01 03:05:11;;;;;;;3.47;3.17;;;;;;;21.19;67.69;95053.88;5045279;28;20442;-82
2023/09/01 03:07:38;;;;;;;5.63;3.40;;;;;;;21.34;66.67;95041.31;5097551;28;20459;-83
2023/09/01 03:10:07;;;;;;;3.57;3.03;;;;;;;21.50;65.75;95037.53;5097378;28;20440;-82
2023/09/01 03:12:35;;;;;;;6.10;2.93;;;;;;;21.34;65.56;95044.78;5097278;28;20451;-83
2023/09/01 03:15:02;;;;;;;6.60;3.50;;;;;;;21.26;64.42;95036.09;5061632;28;20470;-83
2023/09/01 03:17:29;;;;;;;3.90;3.20;;;;;;;21.08;65.75;95047.19;5097079;28;20557;-82
2023/09/01 03:19:56;;;;;;;5.73;3.50;;;;;;;20.92;65.52;95050.94;5097294;28;20443;-81
2023/09/01 03:22:24;;;;;;;7.27;3.93;;;;;;;20.60;66.33;95046.91;5096871;28;20447;-82
2023/09/01 03:24:53;;;;;;;3.53;2.80;;;;;;;20.31;67.71;95057.59;5061174;28;20431;-82
2023/09/01 03:27:21;;;;;;;6.03;4.20;;;;;;;20.05;68.20;95060.72;5097705;28;20997;-82
2023/09/01 03:29:52;;;;;;;6.60;4.00;;;;;;;19.78;70.34;95057.69;5096660;28;20561;-85
2023/09/01 03:32:19;;;;;;;4.50;4.10;;;;;;;19.67;70.84;95060.81;5096008;28;20488;-83
2023/09/01 03:34:46;;;;;;;10.03;3.97;;;;;;;19.60;75.04;95053.72;5044346;28;20449;-84
2023/09/01 03:37:13;;;;;;;8.53;3.63;;;;;;;20.20;71.65;95052.72;5097097;28;20453;-82
2023/09/01 03:39:41;;;;;;;4.80;3.60;;;;;;;20.63;69.14;95059.88;5097383;28;20449;-82
2023/09/01 03:42:08;;;;;;;10.47;4.30;;;;;;;21.23;67.35;95056.00;5096949;28;20480;-82
2023/09/01 03:44:35;;;;;;;5.53;3.33;;;;;;;21.60;66.62;95059.38;5060974;28;20447;-83
2023/09/01 03:47:02;;;;;;;4.50;3.47;;;;;;;21.56;65.50;95050.94;5096277;28;20431;-84
2023/09/01 03:49:29;;;;;;;5.17;3.47;;;;;;;21.86;63.67;95058.75;5044567;28;20473;-81
2023/09/01 03:51:55;;;;;;;6.93;4.27;;;;;;;22.21;62.39;95060.44;5096678;28;20514;-81
2023/09/01 03:54:22;;;;;;;3.50;3.20;;;;;;;22.51;60.85;95050.28;5096196;28;20443;-81
2023/09/01 03:56:50;;;;;;;6.80;3.73;;;;;;;22.71;60.42;95058.41;5096560;28;20440;-82
2023/09/01 03:59:18;;;;;;;4.87;3.63;;;;;;;22.72;60.37;95059.22;5096430;28;20568;-81
2023/09/01 04:01:45;;;;;;;5.23;4.17;;;;;;;22.90;61.14;95062.22;5061015;28;20445;-80
2023/09/01 04:04:12;;;;;;;10.70;5.07;;;;;;;23.15;60.54;95067.84;5096270;28;20447;-80
2023/09/01 04:06:39;;;;;;;3.87;3.50;;;;;;;23.16;60.10;95070.31;5095859;28;20457;-80
2023/09/01 04:09:06;;;;;;;5.33;3.40;;;;;;;23.20;61.31;95070.72;5096268;28;20470;-80
2023/09/01 04:11:33;;;;;;;3.10;2.80;;;;;;;23.38;60.03;95076.28;5092399;28;20471;-81
2023/09/01 04:14:01;;;;;;;7.10;3.73;;;;;;;23.45;58.76;95077.16;5088515;28;20832;-81
2023/09/01 04:16:28;;;;;;;5.60;3.63;;;;;;;23.47;58.25;95082.31;5095136;28;20450;-81
2023/09/01 04:18:56;;;;;;;4.67;4.27;;;;;;;23.71;57.83;95075.53;5090839;28;20487;-81
2023/09/01 04:21:23;;;;;;;5.57;2.97;;;;;;;23.96;57.27;95081.06;5075186;28;20466;-81
2023/09/01 04:23:50;;;;;;;7.83;3.70;;;;;;;24.23;56.70;95077.31;5075528;28;20438;-81
2023/09/01 04:26:16;;;;;;;8.67;4.10;;;;;;;24.67;54.85;95084.66;5074938;28;20439;-78
2023/09/01 04:28:43;;;;;;;5.97;3.77;;;;;;;24.94;53.65;95084.53;5075457;28;20444;-81
2023/09/01 04:31:18;;;;;;;4.47;4.07;;;;;;;25.41;52.34;95087.81;5084408;28;20440;-83
2023/09/01 04:33:45;;;;;;;7.10;3.77;;;;;;;25.76;52.40;95091.75;5095692;28;20444;-83
2023/09/01 04:36:12;;;;;;;5.40;4.00;;;;;;;26.13;50.39;95083.75;5044022;28;20502;-82
2023/09/01 04:38:39;;;;;;;4.23;3.83;;;;;;;26.50;51.34;95090.84;5044244;28;20484;-81
2023/09/01 04:41:06;;;;;;;10.17;4.17;;;;;;;26.83;49.82;95086.94;5096155;28;20433;-83
2023/09/01 04:43:33;;;;;;;4.40;3.57;;;;;;;27.09;48.57;95092.03;5096512;28;20526;-82
2023/09/01 04:46:00;;;;;;;4.10;3.70;;;;;;;27.22;49.54;95088.34;5088816;28;20503;-82
2023/09/01 04:48:28;;;;;;;3.80;3.50;;;;;;;27.40;47.42;95087.47;5075971;28;20913;-82
2023/09/01 04:50:55;;;;;;;5.93;3.73;;;;;;;27.52;46.56;95088.34;5075928;28;20440;-82
2023/09/01 04:53:22;;;;;;;12.30;4.20;;;;;;;27.74;46.60;95100.25;5075465;28;20982;-82
2023/09/01 04:55:49;;;;;;;16.20;6.80;;;;;;;27.91;46.47;95099.56;5075993;28;20444;-81
2023/09/01 04:58:16;;;;;;;11.90;6.10;;;;;;;28.04;44.95;95097.47;5082895;28;20581;-81
2023/09/01 05:00:44;;;;;;;73.10;20.30;;;;;;;27.89;47.17;95101.69;5087840;28;20531;-82
2023/09/01 05:03:11;;;;;;;49.23;15.53;;;;;;;27.86;46.28;95112.94;5089256;28;20435;-82
2023/09/01 05:05:39;;;;;;;29.67;12.63;;;;;;;27.79;45.52;95107.66;5049653;28;20429;-83
2023/09/01 05:08:06;;;;;;;86.20;26.53;;;;;;;27.72;47.35;95107.75;5091796;28;20433;-83
2023/09/01 05:10:33;;;;;;;44.47;15.00;;;;;;;27.84;46.92;95120.44;5094849;28;20770;-85
2023/09/01 05:13:00;;;;;;;151.73;86.07;;;;;;;27.49;48.75;95118.44;5094784;28;20447;-83
2023/09/01 05:15:27;;;;;;;43.90;19.57;;;;;;;27.09;49.10;95128.94;5094958;28;20887;-82
2023/09/01 05:17:54;;;;;;;40.13;16.50;;;;;;;27.05;49.85;95125.88;5094467;28;20484;-82
2023/09/01 05:20:20;;;;;;;8.90;6.53;;;;;;;26.95;49.07;95111.25;5094684;28;20436;-83
2023/09/01 05:22:49;;;;;;;14.87;6.50;;;;;;;26.73;52.01;95127.88;5094570;28;20451;-83
2023/09/01 05:25:16;;;;;;;12.17;5.70;;;;;;;27.11;53.46;95124.94;5043777;28;20443;-85
2023/09/01 05:27:44;;;;;;;7.30;4.67;;;;;;;27.22;50.53;95128.78;5094332;28;20443;-87
2023/09/01 05:30:13;;;;;;;33.63;7.77;;;;;;;27.22;53.57;95123.38;5081129;28;20433;-86
2023/09/01 05:32:40;;;;;;;18.13;5.37;;;;;;;27.13;51.52;95125.53;5031615;28;21010;-83
2023/09/01 05:35:08;;;;;;;13.30;5.00;;;;;;;26.85;50.82;95117.97;5094347;28;20451;-81
2023/09/01 05:37:35;;;;;;;14.07;4.70;;;;;;;27.08;49.51;95125.41;5025530;28;20435;-82
2023/09/01 05:40:04;;;;;;;5.43;3.83;;;;;;;27.36;48.76;95130.22;5094183;28;20835;-80
2023/09/01 05:42:30;;;;;;;4.10;3.40;;;;;;;27.64;48.41;95132.34;5093637;28;20444;-80
2023/09/01 05:44:57;;;;;;;16.73;11.13;;;;;;;27.93;49.14;95127.97;5093948;28;20803;-84
2023/09/01 05:47:24;;;;;;;5.50;4.27;;;;;;;28.32;45.73;95131.91;5093460;28;20459;-83
2023/09/01 05:49:51;;;;;;;10.53;5.37;;;;;;;28.05;46.49;95136.09;5094291;28;20432;-83
2023/09/01 05:52:17;;;;;;;11.30;5.00;;;;;;;27.76;49.47;95137.78;5093605;28;20550;-83
2023/09/01 05:54:44;;;;;;;9.37;4.77;;;;;;;27.41;49.45;95133.06;5041705;28;20446;-82
2023/09/01 05:57:13;;;;;;;10.80;4.83;;;;;;;26.74;51.87;95131.38;5093272;28;20479;-84
2023/09/01 05:59:39;;;;;;;10.37;4.73;;;;;;;26.75;53.03;95130.34;5093391;28;20490;-83
2023/09/01 06:02:06;;;;;;;6.90;4.87;;;;;;;26.72;51.89;95133.47;5093458;28;20459;-83
2023/09/01 06:04:33;;;;;;;7.23;5.03;;;;;;;26.80;51.34;95131.31;5093218;28;20449;-83
2023/09/01 06:07:00;;;;;;;9.57;4.80;;;;;;;26.77;51.32;95121.00;5058365;28;20436;-83
2023/09/01 06:09:27;;;;;;;11.30;5.23;;;;;;;26.67;51.86;95125.25;5094058;28;20432;-83
2023/09/01 06:11:53;;;;;;;9.87;4.87;;;;;;;26.50;53.25;95128.53;5093742;28;20440;-83
2023/09/01 06:14:21;;;;;;;8.07;5.80;;;;;;;26.08;54.01;95127.47;5093788;28;20439;-82
2023/09/01 06:16:50;;;;;;;6.33;5.73;;;;;;;25.91;54.50;95140.63;5094205;28;20459;-83
2023/09/01 06:19:18;;;;;;;7.10;5.13;;;;;;;25.82;54.83;95139.25;5093117;28;20491;-82
2023/09/01 06:21:45;;;;;;;11.90;4.63;;;;;;;25.55;56.13;95137.75;5079864;28;20502;-84
2023/09/01 06:24:12;;;;;;;18.50;5.67;;;;;;;25.71;56.46;95141.78;5089687;28;20444;-83
2023/09/01 06:26:39;;;;;;;8.27;5.30;;;;;;;25.81;55.29;95148.34;5093562;28;20440;-82
2023/09/01 06:29:06;;;;;;;8.13;6.30;;;;;;;25.98;54.82;95147.81;5093602;28;20436;-84
2023/09/01 06:31:35;;;;;;;5.83;5.23;;;;;;;26.03;55.04;95151.50;5092964;28;20444;-84
2023/09/01 06:34:01;;;;;;;17.30;6.80;;;;;;;26.27;54.05;95152.53;5093613;28;20507;-83
2023/09/01 06:36:28;;;;;;;10.50;7.23;;;;;;;26.06;53.73;95152.94;5097607;28;20526;-82
2023/09/01 06:38:56;;;;;;;9.10;7.50;;;;;;;26.01;52.89;95152.75;5097510;28;20494;-84
2023/09/01 06:41:22;;;;;;;15.60;6.50;;;;;;;25.96;53.45;95155.28;5098429;28;20497;-84
2023/09/01 06:43:49;;;;;;;11.37;6.37;;;;;;;26.18;53.96;95153.84;5097861;28;20791;-84
2023/09/01 06:46:16;;;;;;;10.23;7.30;;;;;;;26.42;52.13;95163.81;5063185;28;20452;-83
2023/09/01 06:48:44;;;;;;;11.90;5.90;;;;;;;26.61;51.41;95164.69;5099704;28;20455;-84
2023/09/01 06:51:11;;;;;;;7.13;6.43;;;;;;;26.89;51.43;95164.16;5098085;28;20486;-84
2023/09/01 06:53:38;;;;;;;7.93;6.50;;;;;;;26.92;51.62;95161.03;5099722;28;20467;-83
2023/09/01 06:56:05;;;;;;;15.63;6.43;;;;;;;27.19;51.27;95169.66;5098157;28;20444;-85
2023/09/01 06:58:31;;;;;;;10.00;6.53;;;;;;;26.90;51.86;95163.13;5097746;28;20479;-84
2023/09/01 07:01:07;;;;;;;25.33;8.00;;;;;;;26.83;52.85;95152.41;5097366;28;20817;-84
2023/09/01 07:03:33;;;;;;;22.33;7.13;;;;;;;27.16;51.30;95160.13;5097283;28;20794;-84
2023/09/01 07:06:02;;;;;;;6.90;4.83;;;;;;;27.12;49.86;95171.56;5044783;28;20840;-82
2023/09/01 07:08:29;;;;;;;8.00;4.40;;;;;;;26.85;51.22;95163.78;5096808;28;20435;-81
2023/09/01 07:11:01;;;;;;;7.10;4.87;;;;;;;26.46;51.20;95162.31;5097647;28;20435;-83
2023/09/01 07:13:27;;;;;;;8.03;5.17;;;;;;;26.34;51.83;95166.78;5097695;28;20930;-82
2023/09/01 07:15:54;;;;;;;8.50;6.07;;;;;;;26.39;52.54;95161.56;5097024;28;20444;-82
2023/09/01 07:18:22;;;;;;;9.13;6.03;;;;;;;26.28;53.59;95161.41;5096064;28;20444;-81
2023/09/01 07:20:50;;;;;;;9.60;4.90;;;;;;;26.62;52.83;95174.41;5096543;28;20522;-82
2023/09/01 07:23:19;;;;;;;9.07;5.27;;;;;;;26.68;51.27;95167.28;5096926;28;20440;-83
2023/09/01 07:25:45;;;;;;;26.57;5.60;;;;;;;26.81;50.87;95165.25;5096878;28;20460;-82
2023/09/01 07:28:12;;;;;;;5.70;4.60;;;;;;;26.85;52.11;95173.72;5095007;28;20439;-83
2023/09/01 07:30:39;;;;;;;4.73;4.30;;;;;;;27.04;50.82;95161.94;5079918;28;20437;-83
2023/09/01 07:33:06;;;;;;;5.67;4.50;;;;;;;27.19;50.73;95166.13;5075665;28;20443;-85
2023/09/01 07:35:33;;;;;;;6.80;4.33;;;;;;;27.41;51.27;95173.47;5076076;28;20456;-85
2023/09/01 07:38:00;;;;;;;7.30;4.53;;;;;;;27.60;49.03;95168.88;5024407;28;20437;-82
2023/09/01 07:40:29;;;;;;;6.40;5.20;;;;;;;27.89;47.95;95177.22;5056986;28;20485;-84
2023/09/01 07:42:56;;;;;;;9.30;5.10;;;;;;;28.11;47.44;95167.53;5076080;28;20926;-82
2023/09/01 07:45:22;;;;;;;12.77;5.47;;;;;;;28.11;47.46;95177.50;5075820;28;20766;-83
2023/09/01 07:47:49;;;;;;;6.80;5.03;;;;;;;28.23;47.64;95178.34;5076002;28;20445;-83
2023/09/01 07:50:16;;;;;;;8.20;5.57;;;;;;;28.54;47.58;95172.63;5075942;28;20441;-83
2023/09/01 07:52:43;;;;;;;11.50;5.47;;;;;;;28.47;44.76;95168.41;5076093;28;20468;-84
2023/09/01 07:55:10;;;;;;;6.63;6.03;;;;;;;28.16;45.75;95172.22;5075568;28;20475;-83
2023/09/01 07:57:38;;;;;;;8.10;6.33;;;;;;;27.98;47.12;95168.56;5075975;28;20448;-83
2023/09/01 08:00:07;;;;;;;9.20;5.57;;;;;;;27.86;47.63;95162.31;5075675;28;20939;-81
2023/09/01 08:02:34;;;;;;;6.77;6.17;;;;;;;27.98;47.26;95159.63;5075900;28;20863;-83
2023/09/01 08:05:03;;;;;;;5.90;5.10;;;;;;;28.07;45.97;95164.50;5075177;28;20444;-83
2023/09/01 08:07:30;;;;;;;11.70;5.47;;;;;;;28.31;48.59;95169.91;5074986;28;20441;-83
2023/09/01 08:09:57;;;;;;;6.37;5.77;;;;;;;28.41;44.87;95166.66;5075364;28;20441;-84
2023/09/01 08:12:24;;;;;;;8.37;5.70;;;;;;;28.42;44.84;95165.59;5074737;28;20444;-83
2023/09/01 08:14:52;;;;;;;7.13;5.60;;;;;;;28.62;45.28;95163.34;4990377;28;20440;-83
2023/09/01 08:17:19;;;;;;;13.30;6.10;;;;;;;28.78;44.28;95164.53;5074518;28;20448;-84
2023/09/01 08:19:47;;;;;;;6.63;5.57;;;;;;;28.95;44.16;95162.78;5074532;28;20489;-84
2023/09/01 08:22:14;;;;;;;8.20;6.03;;;;;;;28.83;43.70;95172.75;5075311;28;20448;-84
2023/09/01 08:24:41;;;;;;;8.47;7.30;;;;;;;28.67;43.82;95164.31;5022774;28;20444;-84
2023/09/01 08:27:08;;;;;;;6.63;6.00;;;;;;;28.38;44.55;95165.25;5074573;28;20437;-83
2023/09/01 08:29:34;;;;;;;6.67;5.90;;;;;;;28.13;44.21;95162.72;5076497;28;20498;-84
2023/09/01 08:32:03;;;;;;;9.50;6.67;;;;;;;28.34;44.63;95159.50;5076088;28;20452;-83
2023/09/01 08:34:30;;;;;;;7.53;6.93;;;;;;;28.42;43.45;95154.81;5077627;28;20448;-83
2023/09/01 08:36:57;;;;;;;7.50;6.80;;;;;;;28.29;44.93;95153.13;5076055;28;20809;-84
2023/09/01 08:39:24;;;;;;;7.83;6.93;;;;;;;28.07;44.87;95147.47;5074828;28;20485;-83
2023/09/01 08:41:54;;;;;;;7.80;7.07;;;;;;;28.22;44.59;95145.13;5074256;28;20858;-82
2023/09/01 08:44:23;;;;;;;18.03;9.30;;;;;;;28.35;43.34;95141.44;5074425;28;20794;-83
2023/09/01 08:46:52;;;;;;;8.50;7.70;;;;;;;28.41;43.63;95142.38;5074089;28;20528;-83
2023/09/01 08:49:22;;;;;;;9.00;8.30;;;;;;;28.34;43.28;95139.78;5074187;28;20441;-83
2023/09/01 08:51:49;;;;;;;8.83;8.07;;;;;;;28.03;43.67;95140.88;5073894;28;20523;-83
2023/09/01 08:54:19;;;;;;;7.00;6.50;;;;;;;27.91;43.87;95140.03;5074303;28;20444;-83
2023/09/01 08:56:45;;;;;;;9.10;8.23;;;;;;;27.80;45.08;95141.66;5074052;28;20440;-82
2023/09/01 08:59:12;;;;;;;8.03;7.17;;;;;;;27.85;44.13;95132.88;5073561;28;20610;-83
2023/09/01 09:01:39;;;;;;;7.90;7.10;;;;;;;27.85;44.51;95143.66;5073915;28;20444;-84
2023/09/01 09:04:08;;;;;;;8.07;7.13;;;;;;;27.85;46.16;95133.69;5073764;28;20448;-83
2023/09/01 09:06:37;;;;;;;6.83;6.33;;;;;;;28.00;43.69;95141.34;5074724;28;20437;-83
2023/09/01 09:09:07;;;;;;;7.27;6.70;;;;;;;28.02;44.75;95144.63;5073869;28;20946;-84
2023/09/01 09:11:34;;;;;;;9.90;7.90;;;;;;;28.25;43.48;95141.16;5073600;28;20436;-84
2023/09/01 09:14:00;;;;;;;7.60;6.70;;;;;;;28.52;44.52;95138.84;5073836;28;20805;-82
2023/09/01 09:16:27;;;;;;;8.30;6.90;;;;;;;28.72;41.47;95138.47;5073639;28;20465;-83
2023/09/01 09:18:54;;;;;;;7.30;6.70;;;;;;;28.82;41.64;95128.69;5073550;28;20444;-82
2023/09/01 09:21:28;;;;;;;7.70;7.00;;;;;;;28.88;42.24;95138.59;5073619;28;20448;-83
2023/09/01 09:23:58;;;;;;;7.30;6.60;;;;;;;28.42;41.09;95127.81;5073486;28;20436;-84
2023/09/01 09:26:26;;;;;;;7.90;7.30;;;;;;;28.27;43.98;95130.97;5073240;28;20943;-83
2023/09/01 09:28:53;;;;;;;7.23;6.50;;;;;;;28.14;41.99;95126.59;5073779;28;20461;-84
2023/09/01 09:31:30;;;;;;;7.53;6.67;;;;;;;28.23;42.03;95129.75;5072939;28;20948;-84
2023/09/01 09:33:57;;;;;;;6.50;6.00;;;;;;;27.91;42.55;95127.38;5073103;28;20459;-84
2023/09/01 09:36:33;;;;;;;11.73;6.60;;;;;;;27.80;43.12;95128.19;5073217;28;20480;-83
2023/09/01 09:39:02;;;;;;;8.67;7.10;;;;;;;27.38;43.70;95121.91;5073216;28;20476;-84
2023/09/01 09:41:45;;;;;;;6.07;5.47;;;;;;;27.61;43.84;95121.16;5072951;28;20496;-84
2023/09/01 09:44:12;;;;;;;7.07;6.57;;;;;;;27.74;44.09;95121.81;5072994;28;20920;-84
2023/09/01 09:46:44;;;;;;;6.97;6.33;;;;;;;27.66;43.04;95119.47;5072992;28;20440;-83
2023/09/01 09:49:12;;;;;;;7.00;6.40;;;;;;;27.64;43.26;95115.34;5072943;28;20445;-83
2023/09/01 09:51:41;;;;;;;8.27;6.33;;;;;;;27.83;43.87;95108.84;5072775;28;20453;-85
2023/09/01 09:54:11;;;;;;;8.63;6.70;;;;;;;27.92;43.48;95118.22;5073057;28;20432;-83
2023/09/01 09:56:39;;;;;;;7.40;6.70;;;;;;;27.76;43.19;95108.94;5073046;28;20938;-84
2023/09/01 09:59:06;;;;;;;8.43;7.33;;;;;;;27.82;45.40;95109.06;5021697;28;20794;-84
2023/09/01 10:01:36;;;;;;;7.00;6.50;;;;;;;28.01;43.26;95106.03;5072831;28;20441;-83
2023/09/01 10:04:04;;;;;;;6.60;6.00;;;;;;;27.89;43.64;95099.00;5072715;28;20440;-84
2023/09/01 10:06:32;;;;;;;7.30;6.13;;;;;;;28.07;43.19;95098.91;5072530;28;20445;-83
2023/09/01 10:09:00;;;;;;;6.67;6.17;;;;;;;28.11;42.97;95094.69;5072464;28;20448;-83
2023/09/01 10:11:30;;;;;;;6.80;6.20;;;;;;;28.05;42.16;95093.75;5072563;28;20797;-84
2023/09/01 10:13:57;;;;;;;9.73;6.80;;;;;;;27.85;42.90;95103.22;5072975;28;20467;-84
2023/09/01 10:16:24;;;;;;;8.47;6.00;;;;;;;27.89;42.25;95107.09;5072849;28;20440;-83
2023/09/01 10:18:52;;;;;;;7.90;6.30;;;;;;;27.67;42.37;95102.22;5072581;28;20830;-83
2023/09/01 10:21:20;;;;;;;6.93;6.40;;;;;;;27.29;43.16;95096.34;5072627;28;20481;-83
2023/09/01 10:23:47;;;;;;;6.20;5.70;;;;;;;27.22;43.92;95091.03;5072693;28;20449;-83
2023/09/01 10:26:16;;;;;;;9.23;5.90;;;;;;;27.20;43.05;95097.72;5072331;28;20440;-84
2023/09/01 10:28:59;;;;;;;6.60;6.10;;;;;;;27.12;43.85;95096.97;5072708;28;20447;-82
2023/09/01 10:31:27;;;;;;;6.90;6.20;;;;;;;27.20;45.37;95101.22;5072850;28;20478;-82
2023/09/01 10:34:09;;;;;;;8.33;5.90;;;;;;;27.38;44.88;95098.47;5073440;28;20452;-83
2023/09/01 10:36:36;;;;;;;6.30;5.80;;;;;;;27.53;42.77;95097.25;5022591;28;20488;-83
2023/09/01 10:39:18;;;;;;;6.57;5.27;;;;;;;27.31;43.02;95095.06;5072332;28;20458;-84
2023/09/01 10:41:47;;;;;;;12.53;6.90;;;;;;;26.99;43.77;95094.44;5071525;28;20480;-83
2023/09/01 10:44:15;;;;;;;7.50;6.13;;;;;;;26.90;43.55;95092.28;5021117;28;20452;-83
2023/09/01 10:46:42;;;;;;;7.27;5.60;;;;;;;26.79;43.24;95091.97;5072419;28;20441;-83
2023/09/01 10:49:10;;;;;;;5.80;5.30;;;;;;;26.72;42.85;95082.31;5072733;28;20445;-85
2023/09/01 10:51:39;;;;;;;9.03;5.70;;;;;;;26.63;42.05;95079.13;5072863;28;20487;-85
2023/09/01 10:54:39;;;;;;;6.30;5.67;;;;;;;26.76;44.38;95078.94;5021164;28;20441;-83
2023/09/01 10:57:13;;;;;;;6.60;6.00;;;;;;;26.94;45.11;95083.50;5071927;28;20882;-84
2023/09/01 10:59:41;;;;;;;5.57;5.07;;;;;;;27.10;43.71;95082.91;5072329;28;20468;-83
2023/09/01 11:02:19;;;;;;;7.10;6.43;;;;;;;27.29;42.87;95075.59;5073428;28;20522;-84
2023/09/01 11:04:46;;;;;;;7.13;5.53;;;;;;;27.49;43.21;95074.50;4988554;28;20489;-84
2023/09/01 11:07:13;;;;;;;8.43;6.57;;;;;;;27.39;42.95;95070.47;5072609;28;20966;-83
2023/09/01 11:09:52;;;;;;;8.00;5.80;;;;;;;27.55;45.74;95073.56;5073027;28;20903;-83
2023/09/01 11:12:19;;;;;;;5.87;5.33;;;;;;;27.67;43.42;95074.44;5037406;28;21214;-83
2023/09/01 11:14:58;;;;;;;6.53;5.90;;;;;;;27.86;43.92;95064.38;5073216;28;20445;-82
2023/09/01 11:17:40;;;;;;;6.87;6.27;;;;;;;27.94;44.12;95072.13;5073358;28;20444;-83
2023/09/01 11:20:09;;;;;;;6.63;6.00;;;;;;;27.91;42.02;95059.13;5073633;28;20549;-83
2023/09/01 11:22:38;;;;;;;6.63;6.07;;;;;;;28.02;43.24;95050.19;5077060;28;20539;-80
2023/09/01 11:25:09;;;;;;;5.93;5.43;;;;;;;28.06;42.46;95046.81;5077537;28;20440;-83
2023/09/01 11:27:37;;;;;;;7.03;5.27;;;;;;;28.06;42.85;95046.81;5077170;28;20440;-83
2023/09/01 11:30:07;;;;;;;5.33;4.53;;;;;;;28.00;41.76;95044.22;5077113;28;20444;-84
2023/09/01 11:32:34;;;;;;;9.80;5.73;;;;;;;27.95;42.83;95046.78;5025399;28;20444;-84
2023/09/01 11:35:03;;;;;;;5.47;5.07;;;;;;;27.95;41.45;95042.22;5026835;28;20436;-83
2023/09/01 11:37:40;;;;;;;8.83;5.57;;;;;;;27.94;40.85;95039.75;5095919;28;20439;-82